createdAt,value
2022-10-08T00:01:25.150Z,11.70
2022-10-08T00:03:53.525Z,11.80
2022-10-08T00:06:31.655Z,11.80
2022-10-08T00:09:04.048Z,11.90
2022-10-08T00:11:34.271Z,11.80
2022-10-08T00:14:02.185Z,11.80
2022-10-08T00:16:42.442Z,11.80
2022-10-08T00:19:13.337Z,11.70
2022-10-08T00:21:43.217Z,11.70
2022-10-08T00:24:13.988Z,11.80
2022-10-08T00:26:43.817Z,11.90
2022-10-08T00:29:12.549Z,11.90
2022-10-08T00:31:41.743Z,11.90
2022-10-08T00:34:11.287Z,11.90
2022-10-08T00:36:40.272Z,12.00
2022-10-08T00:39:08.317Z,11.90
2022-10-08T00:41:39.853Z,11.90
2022-10-08T00:44:43.641Z,11.90
2022-10-08T00:47:35.056Z,11.90
2022-10-08T00:50:04.292Z,11.90
2022-10-08T00:52:37.627Z,11.90
2022-10-08T00:55:06.800Z,11.80
2022-10-08T00:57:37.640Z,11.70
2022-10-08T01:00:08.083Z,11.70
2022-10-08T01:02:34.766Z,11.70
2022-10-08T01:05:04.750Z,11.70
2022-10-08T01:07:48.478Z,11.70
2022-10-08T01:10:38.532Z,11.70
2022-10-08T01:13:43.218Z,11.80
2022-10-08T01:16:36.213Z,11.80
2022-10-08T01:19:36.631Z,11.90
2022-10-08T01:22:30.958Z,11.90
2022-10-08T01:25:20.712Z,12.00
2022-10-08T01:27:53.829Z,12.00
2022-10-08T01:30:20.665Z,12.00
2022-10-08T01:32:56.277Z,12.00
2022-10-08T01:35:50.604Z,12.10
2022-10-08T01:38:21.951Z,12.10
2022-10-08T01:40:52.798Z,12.10
2022-10-08T01:43:23.717Z,12.10
2022-10-08T01:45:57.153Z,12.10
2022-10-08T01:48:28.176Z,12.00
2022-10-08T01:51:06.300Z,12.00
2022-10-08T01:53:37.556Z,11.90
2022-10-08T01:56:10.828Z,11.80
2022-10-08T01:58:50.109Z,11.80
2022-10-08T02:01:44.431Z,11.80
2022-10-08T02:04:29.577Z,11.70
2022-10-08T02:06:59.306Z,11.70
2022-10-08T02:09:27.861Z,11.70
2022-10-08T02:11:54.838Z,11.60
2022-10-08T02:14:26.574Z,11.50
2022-10-08T02:17:08.632Z,11.50
2022-10-08T02:19:53.452Z,11.50
2022-10-08T02:22:26.851Z,11.50
2022-10-08T02:25:01.430Z,11.50
2022-10-08T02:27:49.231Z,11.50
2022-10-08T02:30:18.639Z,11.50
2022-10-08T02:32:59.123Z,11.50
2022-10-08T02:35:51.964Z,11.50
2022-10-08T02:38:22.766Z,11.50
2022-10-08T02:40:54.625Z,11.50
2022-10-08T02:43:27.801Z,11.60
2022-10-08T02:46:01.482Z,11.60
2022-10-08T02:48:31.326Z,11.60
2022-10-08T02:51:07.731Z,11.50
2022-10-08T02:53:38.006Z,11.50
2022-10-08T02:56:35.454Z,11.50
2022-10-08T02:59:03.630Z,11.60
2022-10-08T03:01:33.302Z,11.50
2022-10-08T03:04:26.201Z,11.60
2022-10-08T03:06:53.972Z,11.60
2022-10-08T03:09:23.441Z,11.60
2022-10-08T03:11:53.299Z,11.70
2022-10-08T03:14:21.521Z,11.70
2022-10-08T03:16:48.456Z,11.80
2022-10-08T03:19:19.874Z,11.90
2022-10-08T03:21:49.152Z,11.80
2022-10-08T03:24:16.503Z,11.80
2022-10-08T03:26:43.375Z,11.80
2022-10-08T03:29:10.385Z,11.80
2022-10-08T03:31:37.147Z,11.80
2022-10-08T03:34:04.067Z,11.80
2022-10-08T03:36:32.968Z,11.90
2022-10-08T03:39:01.877Z,11.90
2022-10-08T03:41:33.881Z,11.90
2022-10-08T03:44:02.846Z,11.90
2022-10-08T03:46:32.021Z,11.90
2022-10-08T03:48:58.806Z,11.90
2022-10-08T03:51:25.492Z,11.80
2022-10-08T03:53:52.162Z,11.90
2022-10-08T03:56:24.187Z,11.90
2022-10-08T03:58:58.603Z,11.90
2022-10-08T04:01:27.078Z,11.90
2022-10-08T04:03:54.334Z,11.90
2022-10-08T04:06:21.449Z,11.90
2022-10-08T04:08:50.605Z,11.90
2022-10-08T04:11:24.576Z,11.90
2022-10-08T04:13:53.817Z,11.90
2022-10-08T04:16:20.607Z,12.00
2022-10-08T04:18:51.189Z,12.00
2022-10-08T04:21:18.883Z,12.00
2022-10-08T04:23:46.459Z,12.00
2022-10-08T04:26:14.336Z,12.10
2022-10-08T04:28:44.238Z,12.10
2022-10-08T04:31:17.365Z,12.10
2022-10-08T04:33:45.358Z,12.10
2022-10-08T04:36:16.558Z,12.00
2022-10-08T04:38:44.047Z,12.10
2022-10-08T04:41:16.075Z,12.10
2022-10-08T04:43:43.209Z,12.10
2022-10-08T04:46:12.285Z,12.20
2022-10-08T04:48:41.781Z,12.10
2022-10-08T04:51:11.028Z,12.10
2022-10-08T04:53:38.707Z,12.10
2022-10-08T04:56:17.390Z,12.00
2022-10-08T04:58:44.621Z,12.00
2022-10-08T05:01:13.278Z,12.00
2022-10-08T05:03:45.692Z,12.00
2022-10-08T05:06:14.745Z,12.10
2022-10-08T05:08:41.619Z,12.10
2022-10-08T05:11:08.647Z,12.10
2022-10-08T05:13:35.568Z,12.20
2022-10-08T05:16:13.148Z,12.20
2022-10-08T05:18:41.622Z,12.20
2022-10-08T05:21:17.645Z,12.20
2022-10-08T05:23:44.679Z,12.20
2022-10-08T05:26:15.803Z,12.10
2022-10-08T05:28:44.258Z,12.20
2022-10-08T05:31:11.174Z,12.20
2022-10-08T05:33:38.054Z,12.20
2022-10-08T05:36:12.847Z,12.20
2022-10-08T05:38:39.536Z,12.30
2022-10-08T05:41:26.201Z,12.30
2022-10-08T05:43:55.002Z,12.40
2022-10-08T05:46:25.296Z,12.30
2022-10-08T05:48:56.644Z,12.40
2022-10-08T05:51:24.312Z,12.40
2022-10-08T05:53:55.001Z,12.50
2022-10-08T05:56:26.355Z,12.50
2022-10-08T05:58:53.923Z,12.50
2022-10-08T06:01:26.233Z,12.50
2022-10-08T06:04:04.272Z,12.50
2022-10-08T06:06:36.731Z,12.50
2022-10-08T06:09:04.318Z,12.50
2022-10-08T06:11:33.312Z,12.60
2022-10-08T06:14:01.141Z,12.70
2022-10-08T06:16:29.477Z,12.70
2022-10-08T06:18:58.944Z,12.80
2022-10-08T06:21:26.941Z,12.80
2022-10-08T06:23:59.561Z,12.80
2022-10-08T06:26:35.983Z,12.80
2022-10-08T06:29:07.675Z,12.90
2022-10-08T06:31:35.512Z,12.90
2022-10-08T06:34:04.394Z,12.90
2022-10-08T06:36:34.498Z,13.00
2022-10-08T06:39:10.714Z,13.00
2022-10-08T06:41:37.552Z,13.00
2022-10-08T06:44:06.949Z,13.00
2022-10-08T06:46:34.584Z,13.00
2022-10-08T06:49:02.277Z,13.10
2022-10-08T06:51:29.620Z,13.10
2022-10-08T06:54:02.803Z,13.20
2022-10-08T06:56:35.513Z,13.20
2022-10-08T06:59:02.380Z,13.20
2022-10-08T07:01:33.172Z,13.30
2022-10-08T07:04:04.684Z,13.30
2022-10-08T07:06:31.449Z,13.30
2022-10-08T07:09:00.304Z,13.30
2022-10-08T07:11:33.443Z,13.40
2022-10-08T07:14:02.577Z,13.40
2022-10-08T07:16:29.562Z,13.40
2022-10-08T07:18:58.490Z,13.40
2022-10-08T07:21:25.922Z,13.50
2022-10-08T07:23:55.156Z,13.60
2022-10-08T07:26:24.977Z,13.70
2022-10-08T07:28:56.441Z,13.80
2022-10-08T07:31:28.363Z,13.90
2022-10-08T07:33:55.706Z,13.80
2022-10-08T07:36:24.064Z,13.90
2022-10-08T07:39:01.930Z,13.90
2022-10-08T07:41:33.408Z,13.90
2022-10-08T07:44:02.282Z,13.90
2022-10-08T07:46:31.006Z,13.90
2022-10-08T07:49:01.640Z,14.00
2022-10-08T07:51:31.118Z,14.10
2022-10-08T07:54:02.942Z,14.30
2022-10-08T07:56:32.101Z,14.50
2022-10-08T07:59:00.151Z,14.50
2022-10-08T08:01:29.586Z,14.70
2022-10-08T08:04:02.224Z,14.70
2022-10-08T08:06:30.139Z,14.90
2022-10-08T08:08:56.971Z,14.90
2022-10-08T08:11:29.256Z,15.00
2022-10-08T08:13:58.399Z,15.20
2022-10-08T08:16:29.429Z,15.30
2022-10-08T08:19:01.275Z,15.40
2022-10-08T08:21:31.152Z,15.60
2022-10-08T08:23:59.488Z,15.60
2022-10-08T08:26:32.967Z,15.70
2022-10-08T08:29:02.386Z,15.70
2022-10-08T08:31:31.262Z,15.70
2022-10-08T08:34:03.853Z,15.80
2022-10-08T08:36:33.092Z,15.90
2022-10-08T08:39:02.958Z,16.00
2022-10-08T08:41:48.094Z,16.10
2022-10-08T08:44:22.450Z,16.20
2022-10-08T08:47:19.636Z,16.20
2022-10-08T08:50:23.788Z,16.30
2022-10-08T08:52:51.364Z,16.50
2022-10-08T08:55:20.722Z,16.50
2022-10-08T08:58:10.041Z,16.50
2022-10-08T09:00:59.115Z,16.60
2022-10-08T09:03:41.049Z,16.40
2022-10-08T09:06:16.143Z,16.40
2022-10-08T09:08:59.324Z,16.50
2022-10-08T09:11:28.115Z,16.60
2022-10-08T09:14:00.770Z,16.70
2022-10-08T09:16:30.295Z,16.60
2022-10-08T09:18:59.167Z,16.60
2022-10-08T09:21:29.252Z,16.60
2022-10-08T09:23:58.325Z,16.60
2022-10-08T09:26:31.945Z,16.60
2022-10-08T09:29:00.825Z,16.60
2022-10-08T09:31:38.490Z,16.60
2022-10-08T09:34:15.552Z,16.60
2022-10-08T09:36:48.019Z,16.60
2022-10-08T09:39:26.658Z,16.60
2022-10-08T09:42:09.253Z,16.50
2022-10-08T09:44:40.341Z,16.50
2022-10-08T09:47:14.656Z,16.40
2022-10-08T09:49:44.798Z,16.50
2022-10-08T09:52:21.696Z,16.50
2022-10-08T09:55:16.461Z,16.60
2022-10-08T09:57:49.475Z,16.70
2022-10-08T10:00:31.942Z,16.70
2022-10-08T10:03:00.321Z,16.70
2022-10-08T10:05:32.851Z,16.70
2022-10-08T10:07:59.561Z,16.80
2022-10-08T10:10:35.920Z,16.90
2022-10-08T10:13:25.065Z,16.90
2022-10-08T10:16:12.943Z,16.90
2022-10-08T10:19:03.265Z,16.80
2022-10-08T10:21:59.537Z,16.80
2022-10-08T10:24:55.686Z,16.90
2022-10-08T10:27:38.503Z,17.10
2022-10-08T10:30:24.870Z,17.20
2022-10-08T10:33:00.607Z,17.30
2022-10-08T10:35:29.327Z,17.20
2022-10-08T10:38:08.947Z,17.30
2022-10-08T10:40:37.121Z,17.30
2022-10-08T10:43:28.374Z,17.40
2022-10-08T10:46:18.487Z,17.50
2022-10-08T10:48:49.940Z,17.60
2022-10-08T10:51:35.626Z,17.80
2022-10-08T10:54:37.617Z,17.70
2022-10-08T10:57:28.258Z,17.60
2022-10-08T11:00:13.173Z,17.50
2022-10-08T11:02:45.278Z,17.60
2022-10-08T11:05:25.658Z,17.50
2022-10-08T11:08:09.958Z,17.50
2022-10-08T11:10:39.386Z,17.50
2022-10-08T11:13:27.238Z,17.40
2022-10-08T11:16:20.524Z,17.20
2022-10-08T11:18:51.951Z,17.10
2022-10-08T11:21:53.809Z,17.10
2022-10-08T11:24:34.856Z,17.20
2022-10-08T11:27:20.478Z,17.20
2022-10-08T11:30:12.158Z,17.20
2022-10-08T11:32:41.200Z,17.20
2022-10-08T11:35:26.992Z,17.20
2022-10-08T11:38:31.658Z,17.20
2022-10-08T11:41:05.207Z,17.20
2022-10-08T11:43:48.501Z,17.20
2022-10-08T11:46:34.337Z,17.30
2022-10-08T11:49:22.934Z,17.30
2022-10-08T11:51:52.137Z,17.40
2022-10-08T11:54:34.592Z,17.30
2022-10-08T11:57:25.048Z,17.40
2022-10-08T12:00:08.101Z,17.40
2022-10-08T12:02:39.022Z,17.40
2022-10-08T12:05:43.668Z,17.30
2022-10-08T12:08:48.597Z,17.40
2022-10-08T12:11:48.961Z,17.50
2022-10-08T12:14:15.724Z,17.50
2022-10-08T12:16:48.456Z,17.50
2022-10-08T12:19:36.082Z,17.50
2022-10-08T12:22:14.756Z,17.60
2022-10-08T12:24:48.871Z,17.70
2022-10-08T12:27:17.040Z,17.60
2022-10-08T12:30:07.886Z,17.60
2022-10-08T12:32:43.801Z,17.60
2022-10-08T12:35:33.237Z,17.60
2022-10-08T12:38:02.655Z,17.50
2022-10-08T12:41:04.436Z,17.50
2022-10-08T12:43:44.579Z,17.50
2022-10-08T12:46:23.275Z,17.50
2022-10-08T12:49:05.347Z,17.50
2022-10-08T12:51:52.246Z,17.60
2022-10-08T12:54:22.991Z,17.50
2022-10-08T12:56:52.100Z,17.50
2022-10-08T12:59:26.154Z,17.50
2022-10-08T13:01:58.831Z,17.50
2022-10-08T13:04:33.965Z,17.40
2022-10-08T13:07:17.981Z,17.40
2022-10-08T13:09:44.977Z,17.40
2022-10-08T13:12:11.681Z,17.40
2022-10-08T13:14:40.053Z,17.50
2022-10-08T13:17:27.691Z,17.40
2022-10-08T13:20:24.618Z,17.50
2022-10-08T13:22:53.705Z,17.60
2022-10-08T13:25:42.215Z,17.60
2022-10-08T13:28:09.172Z,17.70
2022-10-08T13:30:35.881Z,17.80
2022-10-08T13:33:16.326Z,18.00
2022-10-08T13:35:44.345Z,18.20
2022-10-08T13:38:23.483Z,18.20
2022-10-08T13:40:52.640Z,18.30
2022-10-08T13:43:22.010Z,18.30
2022-10-08T13:45:50.116Z,18.30
2022-10-08T13:48:17.019Z,18.10
2022-10-08T13:50:50.206Z,17.80
2022-10-08T13:53:21.014Z,17.60
2022-10-08T13:55:49.662Z,17.50
2022-10-08T13:58:18.801Z,17.40
2022-10-08T14:00:46.884Z,17.40
2022-10-08T14:03:14.297Z,17.30
2022-10-08T14:05:43.961Z,17.20
2022-10-08T14:08:18.385Z,17.20
2022-10-08T14:10:45.596Z,17.10
2022-10-08T14:13:14.190Z,17.10
2022-10-08T14:15:41.678Z,17.10
2022-10-08T14:18:08.787Z,17.20
2022-10-08T14:20:36.646Z,17.20
2022-10-08T14:23:03.404Z,17.20
2022-10-08T14:25:32.417Z,17.20
2022-10-08T14:28:00.398Z,17.20
2022-10-08T14:30:28.011Z,17.20
2022-10-08T14:32:55.094Z,17.20
2022-10-08T14:35:22.183Z,17.20
2022-10-08T14:37:53.745Z,17.30
2022-10-08T14:40:22.776Z,17.40
2022-10-08T14:42:52.206Z,17.50
2022-10-08T14:45:19.005Z,17.40
2022-10-08T14:47:46.079Z,17.40
2022-10-08T14:50:13.601Z,17.40
2022-10-08T14:52:44.992Z,17.40
2022-10-08T14:55:12.074Z,17.30
2022-10-08T14:57:40.953Z,17.20
2022-10-08T15:00:10.759Z,17.10
2022-10-08T15:02:37.457Z,17.10
2022-10-08T15:05:04.607Z,17.00
2022-10-08T15:07:33.899Z,17.00
2022-10-08T15:10:02.738Z,17.00
2022-10-08T15:12:29.634Z,16.90
2022-10-08T15:14:56.422Z,16.90
2022-10-08T15:17:23.137Z,16.90
2022-10-08T15:19:49.864Z,16.90
2022-10-08T15:22:19.030Z,16.90
2022-10-08T15:24:47.855Z,16.90
2022-10-08T15:27:20.556Z,16.80
2022-10-08T15:29:47.774Z,16.80
2022-10-08T15:32:15.842Z,16.90
2022-10-08T15:34:44.697Z,16.80
2022-10-08T15:37:11.375Z,16.80
2022-10-08T15:39:40.835Z,16.80
2022-10-08T15:42:09.132Z,16.80
2022-10-08T15:44:35.817Z,16.80
2022-10-08T15:47:07.522Z,16.70
2022-10-08T15:49:40.244Z,16.70
2022-10-08T15:52:12.079Z,16.60
2022-10-08T15:54:39.679Z,16.60
2022-10-08T15:57:07.494Z,16.60
2022-10-08T15:59:34.287Z,16.50
2022-10-08T16:02:04.816Z,16.50
2022-10-08T16:04:33.759Z,16.50
2022-10-08T16:07:00.598Z,16.40
2022-10-08T16:09:27.385Z,16.30
2022-10-08T16:11:56.239Z,16.20
2022-10-08T16:14:25.096Z,16.10
2022-10-08T16:16:55.241Z,16.10
2022-10-08T16:19:27.236Z,16.00
2022-10-08T16:21:58.305Z,15.90
2022-10-08T16:24:27.798Z,15.80
2022-10-08T16:26:54.509Z,15.60
2022-10-08T16:29:23.851Z,15.50
2022-10-08T16:31:50.640Z,15.30
2022-10-08T16:34:22.514Z,15.20
2022-10-08T16:36:49.370Z,15.00
2022-10-08T16:39:21.368Z,14.80
2022-10-08T16:41:48.433Z,14.60
2022-10-08T16:44:19.092Z,14.50
2022-10-08T16:46:51.341Z,14.30
2022-10-08T16:49:26.241Z,14.10
2022-10-08T16:52:08.235Z,14.00
2022-10-08T16:54:35.023Z,13.80
2022-10-08T16:57:02.262Z,13.70
2022-10-08T16:59:29.737Z,13.60
2022-10-08T17:02:02.471Z,13.50
2022-10-08T17:04:36.238Z,13.40
2022-10-08T17:07:07.382Z,13.30
2022-10-08T17:09:36.964Z,13.30
2022-10-08T17:12:03.997Z,13.30
2022-10-08T17:14:33.108Z,13.30
2022-10-08T17:17:00.140Z,13.20
2022-10-08T17:19:27.019Z,13.00
2022-10-08T17:21:54.001Z,12.90
2022-10-08T17:24:20.817Z,12.70
2022-10-08T17:26:51.053Z,12.70
2022-10-08T17:29:17.807Z,12.70
2022-10-08T17:31:44.751Z,12.60
2022-10-08T17:34:14.074Z,12.50
2022-10-08T17:36:43.797Z,12.50
2022-10-08T17:39:18.939Z,12.40
2022-10-08T17:41:45.611Z,12.20
2022-10-08T17:44:12.720Z,12.20
2022-10-08T17:46:46.014Z,12.10
2022-10-08T17:49:18.067Z,12.00
2022-10-08T17:51:45.422Z,11.90
2022-10-08T17:54:18.921Z,11.90
2022-10-08T17:56:49.307Z,11.90
2022-10-08T17:59:21.460Z,11.80
2022-10-08T18:01:48.725Z,11.80
2022-10-08T18:04:17.112Z,11.70
2022-10-08T18:06:47.550Z,11.60
2022-10-08T18:09:18.272Z,11.60
2022-10-08T18:11:50.987Z,11.60
2022-10-08T18:14:17.846Z,11.70
2022-10-08T18:16:48.740Z,11.60
2022-10-08T18:19:16.332Z,11.70
2022-10-08T18:21:43.114Z,11.60
2022-10-08T18:24:12.212Z,11.60
2022-10-08T18:26:38.901Z,11.60
2022-10-08T18:29:11.610Z,11.60
2022-10-08T18:31:40.482Z,11.60
2022-10-08T18:34:11.840Z,11.60
2022-10-08T18:36:39.501Z,11.60
2022-10-08T18:39:12.099Z,11.50
2022-10-08T18:41:43.822Z,11.50
2022-10-08T18:44:14.077Z,11.50
2022-10-08T18:46:47.253Z,11.40
2022-10-08T18:49:20.734Z,11.40
2022-10-08T18:51:49.581Z,11.30
2022-10-08T18:54:21.053Z,11.20
2022-10-08T18:56:47.763Z,11.10
2022-10-08T18:59:16.128Z,11.00
2022-10-08T19:01:48.540Z,11.00
2022-10-08T19:04:21.000Z,11.00
2022-10-08T19:06:54.888Z,10.90
2022-10-08T19:09:21.718Z,10.90
2022-10-08T19:11:50.954Z,10.90
2022-10-08T19:14:20.382Z,10.80
2022-10-08T19:16:47.757Z,10.70
2022-10-08T19:19:27.367Z,10.60
2022-10-08T19:21:54.910Z,10.50
2022-10-08T19:24:23.895Z,10.50
2022-10-08T19:26:51.288Z,10.50
2022-10-08T19:29:21.320Z,10.50
2022-10-08T19:31:49.889Z,10.40
2022-10-08T19:34:21.452Z,10.30
2022-10-08T19:36:51.553Z,10.30
2022-10-08T19:39:21.946Z,10.30
2022-10-08T19:41:51.605Z,10.30
2022-10-08T19:44:21.529Z,10.30
2022-10-08T19:46:48.637Z,10.30
2022-10-08T19:49:20.016Z,10.30
2022-10-08T19:51:49.393Z,10.30
2022-10-08T19:54:16.791Z,10.20
2022-10-08T19:56:43.632Z,10.20
2022-10-08T19:59:13.707Z,10.20
2022-10-08T20:01:41.892Z,10.20
2022-10-08T20:04:12.050Z,10.20
2022-10-08T20:06:40.524Z,10.20
2022-10-08T20:09:11.797Z,10.20
2022-10-08T20:11:39.179Z,10.10
2022-10-08T20:14:08.750Z,10.10
2022-10-08T20:16:38.240Z,10.10
2022-10-08T20:19:12.823Z,10.10
2022-10-08T20:21:39.652Z,10.10
2022-10-08T20:24:07.083Z,10.00
2022-10-08T20:26:35.648Z,10.00
2022-10-08T20:29:13.032Z,9.90
2022-10-08T20:31:46.243Z,9.90
2022-10-08T20:34:19.138Z,9.80
2022-10-08T20:36:47.185Z,9.80
2022-10-08T20:39:15.687Z,9.70
2022-10-08T20:41:42.652Z,9.70
2022-10-08T20:44:09.822Z,9.70
2022-10-08T20:46:37.881Z,9.70
2022-10-08T20:49:08.497Z,9.70
2022-10-08T20:51:37.664Z,9.60
2022-10-08T20:54:08.939Z,9.60
2022-10-08T20:56:39.712Z,9.50
2022-10-08T20:59:08.446Z,9.50
2022-10-08T21:01:38.090Z,9.40
2022-10-08T21:04:06.665Z,9.40
2022-10-08T21:06:44.484Z,9.30
2022-10-08T21:09:14.330Z,9.30
2022-10-08T21:11:41.727Z,9.20
2022-10-08T21:14:09.772Z,9.20
2022-10-08T21:16:39.216Z,9.20
2022-10-08T21:19:10.450Z,9.20
2022-10-08T21:21:40.290Z,9.20
2022-10-08T21:24:10.333Z,9.10
2022-10-08T21:26:41.188Z,9.10
2022-10-08T21:29:13.105Z,9.00
2022-10-08T21:31:41.176Z,9.00
2022-10-08T21:34:08.313Z,8.90
2022-10-08T21:36:39.383Z,8.90
2022-10-08T21:39:15.819Z,8.90
2022-10-08T21:41:42.576Z,8.80
2022-10-08T21:44:09.439Z,8.80
2022-10-08T21:46:41.347Z,8.80
2022-10-08T21:49:12.327Z,8.90
2022-10-08T21:51:42.097Z,8.90
2022-10-08T21:54:11.099Z,8.80
2022-10-08T21:56:41.879Z,8.80
2022-10-08T21:59:12.117Z,8.70
2022-10-08T22:01:49.311Z,8.70
2022-10-08T22:04:21.776Z,8.70
2022-10-08T22:06:58.248Z,8.60
2022-10-08T22:09:28.161Z,8.50
2022-10-08T22:11:55.997Z,8.40
2022-10-08T22:14:23.296Z,8.40
2022-10-08T22:16:52.571Z,8.40
2022-10-08T22:19:23.272Z,8.40
2022-10-08T22:21:49.934Z,8.30
2022-10-08T22:24:16.802Z,8.30
2022-10-08T22:26:47.646Z,8.30
2022-10-08T22:29:14.559Z,8.30
2022-10-08T22:31:44.022Z,8.20
2022-10-08T22:34:11.144Z,8.20
2022-10-08T22:36:42.668Z,8.20
2022-10-08T22:39:09.947Z,8.20
2022-10-08T22:41:37.021Z,8.30
2022-10-08T22:44:04.067Z,8.30
2022-10-08T22:46:36.374Z,8.20
2022-10-08T22:49:06.481Z,8.10
2022-10-08T22:51:33.364Z,8.10
2022-10-08T22:54:00.075Z,8.10
2022-10-08T22:56:29.472Z,8.10
2022-10-08T22:58:57.888Z,8.10
2022-10-08T23:01:28.785Z,8.00
2022-10-08T23:03:56.055Z,8.00
2022-10-08T23:06:31.774Z,7.90
2022-10-08T23:09:00.571Z,7.90
2022-10-08T23:11:30.861Z,7.90
2022-10-08T23:13:58.935Z,7.90
2022-10-08T23:16:27.638Z,7.90
2022-10-08T23:18:59.867Z,7.80
2022-10-08T23:21:27.247Z,7.70
2022-10-08T23:23:54.614Z,7.70
2022-10-08T23:26:22.780Z,7.70
2022-10-08T23:28:51.409Z,7.70
2022-10-08T23:31:20.447Z,7.70
2022-10-08T23:33:48.782Z,7.70
2022-10-08T23:36:17.952Z,7.70
2022-10-08T23:38:45.181Z,7.70
2022-10-08T23:41:12.925Z,7.60
2022-10-08T23:43:45.124Z,7.60
2022-10-08T23:46:14.984Z,7.50
2022-10-08T23:48:44.269Z,7.50
2022-10-08T23:51:17.106Z,7.50
2022-10-08T23:53:44.355Z,7.50
2022-10-08T23:56:12.303Z,7.50
2022-10-08T23:58:41.428Z,7.50
